createdAt,value
2022-10-06T00:00:38.441Z,13.51
2022-10-06T00:03:28.218Z,13.68
2022-10-06T00:06:00.818Z,13.75
2022-10-06T00:08:29.755Z,13.46
2022-10-06T00:10:58.882Z,13.44
2022-10-06T00:13:27.844Z,13.51
2022-10-06T00:15:56.263Z,13.51
2022-10-06T00:18:25.571Z,13.46
2022-10-06T00:20:59.771Z,13.95
2022-10-06T00:23:29.386Z,13.61
2022-10-06T00:25:58.490Z,13.40
2022-10-06T00:28:27.830Z,13.59
2022-10-06T00:30:56.608Z,13.49
2022-10-06T00:33:25.160Z,13.43
2022-10-06T00:35:58.964Z,13.90
2022-10-06T00:38:28.336Z,13.42
2022-10-06T00:40:57.187Z,13.52
2022-10-06T00:43:47.182Z,14.19
2022-10-06T00:46:19.791Z,13.73
2022-10-06T00:48:51.288Z,13.60
2022-10-06T00:51:22.351Z,13.71
2022-10-06T00:53:51.422Z,13.54
2022-10-06T00:56:19.794Z,13.31
2022-10-06T00:58:50.029Z,13.28
2022-10-06T01:01:18.455Z,13.36
2022-10-06T01:03:50.149Z,13.72
2022-10-06T01:06:18.892Z,13.51
2022-10-06T01:08:48.797Z,13.89
2022-10-06T01:11:17.593Z,13.59
2022-10-06T01:13:46.967Z,13.80
2022-10-06T01:16:19.625Z,14.00
2022-10-06T01:18:49.649Z,13.93
2022-10-06T01:21:25.163Z,14.22
2022-10-06T01:23:57.290Z,14.06
2022-10-06T01:26:27.904Z,14.23
2022-10-06T01:28:56.545Z,14.10
2022-10-06T01:31:25.413Z,14.20
2022-10-06T01:33:54.416Z,14.24
2022-10-06T01:36:23.069Z,14.20
2022-10-06T01:38:51.424Z,14.27
2022-10-06T01:41:22.475Z,14.62
2022-10-06T01:43:51.407Z,14.45
2022-10-06T01:46:19.639Z,14.44
2022-10-06T01:48:47.986Z,14.35
2022-10-06T01:51:18.420Z,14.54
2022-10-06T01:53:46.555Z,14.22
2022-10-06T01:56:14.733Z,14.54
2022-10-06T01:58:44.512Z,14.90
2022-10-06T02:01:13.654Z,14.68
2022-10-06T02:03:42.686Z,14.71
2022-10-06T02:06:11.913Z,14.80
2022-10-06T02:08:40.315Z,14.66
2022-10-06T02:11:10.395Z,15.08
2022-10-06T02:13:39.202Z,14.81
2022-10-06T02:16:10.518Z,15.06
2022-10-06T02:18:39.053Z,14.72
2022-10-06T02:21:07.969Z,14.91
2022-10-06T02:23:36.126Z,14.79
2022-10-06T02:26:06.512Z,14.97
2022-10-06T02:28:35.588Z,14.79
2022-10-06T02:31:04.781Z,14.85
2022-10-06T02:33:36.159Z,15.03
2022-10-06T02:36:05.053Z,14.92
2022-10-06T02:38:33.707Z,14.74
2022-10-06T02:41:02.802Z,14.93
2022-10-06T02:43:31.889Z,14.60
2022-10-06T02:46:01.877Z,14.91
2022-10-06T02:48:31.204Z,14.70
2022-10-06T02:51:02.838Z,15.05
2022-10-06T02:53:31.159Z,14.79
2022-10-06T02:56:00.843Z,14.88
2022-10-06T02:58:31.302Z,14.88
2022-10-06T03:01:03.943Z,15.62
2022-10-06T03:03:32.104Z,15.64
2022-10-06T03:06:03.107Z,15.16
2022-10-06T03:08:31.699Z,14.68
2022-10-06T03:11:01.649Z,14.87
2022-10-06T03:13:30.356Z,14.80
2022-10-06T03:15:59.294Z,14.67
2022-10-06T03:18:27.943Z,14.60
2022-10-06T03:21:02.771Z,15.06
2022-10-06T03:23:31.408Z,14.61
2022-10-06T03:25:59.645Z,14.49
2022-10-06T03:28:28.660Z,14.48
2022-10-06T03:31:02.765Z,14.93
2022-10-06T03:33:31.755Z,14.39
2022-10-06T03:36:02.481Z,14.52
2022-10-06T03:38:32.504Z,14.55
2022-10-06T03:41:05.248Z,14.63
2022-10-06T03:43:33.541Z,14.36
2022-10-06T03:46:02.845Z,14.65
2022-10-06T03:48:32.537Z,14.70
2022-10-06T03:51:03.518Z,14.71
2022-10-06T03:53:33.067Z,14.74
2022-10-06T03:56:02.596Z,14.62
2022-10-06T03:58:32.393Z,14.76
2022-10-06T04:01:02.823Z,14.71
2022-10-06T04:03:31.647Z,14.55
2022-10-06T04:06:03.007Z,14.62
2022-10-06T04:08:33.031Z,14.63
2022-10-06T04:11:07.513Z,14.97
2022-10-06T04:13:35.925Z,14.47
2022-10-06T04:16:11.827Z,14.93
2022-10-06T04:18:40.413Z,14.50
2022-10-06T04:21:10.739Z,14.74
2022-10-06T04:23:39.109Z,14.44
2022-10-06T04:26:10.577Z,14.55
2022-10-06T04:28:40.296Z,14.31
2022-10-06T04:31:14.660Z,14.69
2022-10-06T04:33:43.744Z,14.28
2022-10-06T04:36:17.215Z,14.69
2022-10-06T04:38:45.665Z,14.23
2022-10-06T04:41:16.045Z,14.52
2022-10-06T04:43:46.453Z,14.78
2022-10-06T04:46:41.067Z,14.42
2022-10-06T04:49:03.521Z,14.38
2022-10-06T04:51:33.469Z,14.64
2022-10-06T04:54:02.727Z,14.46
2022-10-06T04:56:32.070Z,14.54
2022-10-06T04:59:00.551Z,14.43
2022-10-06T05:01:30.627Z,14.60
2022-10-06T05:04:00.097Z,14.64
2022-10-06T05:06:29.639Z,14.58
2022-10-06T05:09:01.023Z,14.88
2022-10-06T05:11:29.811Z,14.44
2022-10-06T05:13:59.175Z,14.76
2022-10-06T05:16:29.207Z,14.75
2022-10-06T05:18:58.474Z,14.78
2022-10-06T05:21:28.889Z,15.04
2022-10-06T05:23:59.184Z,15.23
2022-10-06T05:26:30.250Z,15.88
2022-10-06T05:28:58.848Z,17.17
2022-10-06T05:31:28.217Z,17.00
2022-10-06T05:33:57.466Z,17.64
2022-10-06T05:36:26.809Z,18.25
2022-10-06T05:38:55.126Z,18.74
2022-10-06T05:41:25.848Z,19.85
2022-10-06T05:43:54.363Z,20.31
2022-10-06T05:46:30.058Z,21.07
2022-10-06T05:48:59.959Z,21.54
2022-10-06T05:51:31.216Z,22.17
2022-10-06T05:54:00.242Z,22.62
2022-10-06T05:56:30.975Z,23.82
2022-10-06T05:58:59.932Z,24.38
2022-10-06T06:01:29.808Z,24.97
2022-10-06T06:04:00.553Z,25.24
2022-10-06T06:06:30.532Z,25.42
2022-10-06T06:09:00.923Z,24.82
2022-10-06T06:11:31.989Z,23.92
2022-10-06T06:14:01.585Z,22.83
2022-10-06T06:16:31.069Z,22.24
2022-10-06T06:18:59.781Z,21.84
2022-10-06T06:21:29.107Z,21.97
2022-10-06T06:23:57.416Z,22.70
2022-10-06T06:26:26.655Z,23.44
2022-10-06T06:29:00.339Z,24.41
2022-10-06T06:31:31.492Z,24.78
2022-10-06T06:34:01.470Z,24.59
2022-10-06T06:36:32.095Z,24.17
2022-10-06T06:39:00.681Z,23.86
2022-10-06T06:41:30.409Z,24.62
2022-10-06T06:44:00.461Z,25.97
2022-10-06T06:46:32.210Z,26.60
2022-10-06T06:49:04.362Z,26.36
2022-10-06T06:51:34.584Z,26.72
2022-10-06T06:54:03.361Z,27.86
2022-10-06T06:56:35.304Z,28.83
2022-10-06T06:59:10.877Z,29.89
2022-10-06T07:01:44.635Z,30.36
2022-10-06T07:04:13.783Z,30.65
2022-10-06T07:06:42.726Z,31.30
2022-10-06T07:09:11.306Z,31.71
2022-10-06T07:11:40.923Z,31.99
2022-10-06T07:14:12.723Z,32.23
2022-10-06T07:16:59.057Z,31.55
2022-10-06T07:19:52.987Z,31.25
2022-10-06T07:22:40.401Z,31.67
2022-10-06T07:25:13.337Z,32.13
2022-10-06T07:27:43.467Z,32.01
2022-10-06T07:30:19.298Z,32.35
2022-10-06T07:32:50.041Z,31.52
2022-10-06T07:35:20.460Z,30.09
2022-10-06T07:37:49.581Z,28.66
2022-10-06T07:40:18.779Z,27.56
2022-10-06T07:42:52.227Z,26.61
2022-10-06T07:45:41.124Z,26.59
2022-10-06T07:48:12.146Z,26.41
2022-10-06T07:50:41.019Z,26.03
2022-10-06T07:53:10.071Z,25.69
2022-10-06T07:55:40.050Z,25.51
2022-10-06T07:58:11.846Z,25.59
2022-10-06T08:00:42.525Z,25.25
2022-10-06T08:03:12.408Z,24.78
2022-10-06T08:05:40.644Z,24.29
2022-10-06T08:08:09.047Z,24.26
2022-10-06T08:10:37.149Z,24.73
2022-10-06T08:13:06.503Z,25.53
2022-10-06T08:15:34.987Z,25.92
2022-10-06T08:18:16.473Z,26.63
2022-10-06T08:20:49.973Z,26.52
2022-10-06T08:23:18.319Z,27.51
2022-10-06T08:25:51.238Z,28.92
2022-10-06T08:28:20.619Z,30.01
2022-10-06T08:30:54.283Z,30.92
2022-10-06T08:33:24.187Z,31.84
2022-10-06T08:35:52.737Z,32.05
2022-10-06T08:38:21.833Z,32.76
2022-10-06T08:40:50.390Z,33.85
2022-10-06T08:43:23.368Z,35.54
2022-10-06T08:48:30.263Z,37.28
2022-10-06T08:51:05.061Z,38.21
2022-10-06T08:53:38.253Z,38.56
2022-10-06T08:56:11.005Z,39.14
2022-10-06T08:58:50.566Z,40.29
2022-10-06T09:01:23.610Z,40.92
2022-10-06T09:03:56.524Z,41.36
2022-10-06T09:06:38.019Z,41.60
2022-10-06T09:09:13.348Z,41.84
2022-10-06T09:11:48.682Z,41.96
2022-10-06T09:14:22.115Z,42.22
2022-10-06T09:16:53.753Z,42.71
2022-10-06T09:19:29.968Z,43.75
2022-10-06T09:22:04.678Z,44.35
2022-10-06T09:24:36.289Z,45.00
2022-10-06T09:27:16.552Z,45.63
2022-10-06T09:29:44.887Z,45.65
2022-10-06T09:32:13.742Z,46.25
2022-10-06T09:34:45.984Z,46.93
2022-10-06T09:37:14.979Z,46.73
2022-10-06T09:39:44.851Z,46.77
2022-10-06T09:42:16.397Z,46.70
2022-10-06T09:44:51.097Z,46.22
2022-10-06T09:47:37.000Z,46.76
2022-10-06T09:50:20.392Z,46.99
2022-10-06T09:53:07.429Z,47.78
2022-10-06T09:55:43.576Z,47.83
2022-10-06T09:58:22.226Z,47.95
2022-10-06T10:00:56.302Z,47.84
2022-10-06T10:03:26.145Z,47.67
2022-10-06T10:05:56.199Z,48.06
2022-10-06T10:08:26.165Z,47.99
2022-10-06T10:11:33.339Z,48.70
2022-10-06T10:14:01.817Z,48.65
2022-10-06T10:16:34.953Z,49.80
2022-10-06T10:19:05.365Z,49.54
2022-10-06T10:21:36.535Z,49.28
2022-10-06T10:24:07.113Z,49.12
2022-10-06T10:26:44.909Z,49.42
2022-10-06T10:29:35.386Z,49.85
2022-10-06T10:32:12.151Z,50.62
2022-10-06T10:34:58.767Z,51.36
2022-10-06T10:37:35.214Z,51.52
2022-10-06T10:40:12.063Z,51.45
2022-10-06T10:42:45.886Z,50.88
2022-10-06T10:45:19.285Z,49.10
2022-10-06T10:47:48.703Z,47.83
2022-10-06T10:50:22.178Z,46.58
2022-10-06T10:52:53.313Z,43.66
2022-10-06T10:55:28.019Z,40.97
2022-10-06T10:57:59.670Z,38.66
2022-10-06T11:00:32.234Z,37.63
2022-10-06T11:03:02.861Z,36.57
2022-10-06T11:05:42.822Z,35.61
2022-10-06T11:08:17.294Z,35.38
2022-10-06T11:10:48.974Z,34.53
2022-10-06T11:13:24.879Z,33.61
2022-10-06T11:16:12.231Z,32.68
2022-10-06T11:18:49.984Z,31.49
2022-10-06T11:21:21.442Z,30.51
2022-10-06T11:23:58.953Z,29.88
2022-10-06T11:26:38.418Z,29.06
2022-10-06T11:29:11.201Z,28.50
2022-10-06T11:31:43.669Z,28.15
2022-10-06T11:34:12.300Z,27.59
2022-10-06T11:36:46.846Z,27.78
2022-10-06T11:39:23.328Z,27.62
2022-10-06T11:41:55.215Z,27.27
2022-10-06T11:44:32.784Z,27.14
2022-10-06T11:47:05.166Z,27.26
2022-10-06T11:49:52.332Z,27.96
2022-10-06T11:52:47.572Z,28.88
2022-10-06T11:55:22.090Z,29.59
2022-10-06T11:58:29.899Z,30.58
2022-10-06T12:00:57.486Z,30.10
2022-10-06T12:04:06.374Z,30.79
2022-10-06T12:07:02.205Z,30.86
2022-10-06T12:09:52.269Z,30.53
2022-10-06T12:13:01.948Z,30.35
2022-10-06T12:19:18.879Z,29.85
2022-10-06T12:22:00.653Z,29.69
2022-10-06T12:24:37.072Z,29.61
2022-10-06T12:27:25.888Z,29.79
2022-10-06T12:30:01.551Z,29.66
2022-10-06T12:32:41.631Z,29.58
2022-10-06T12:35:18.185Z,29.24
2022-10-06T12:37:53.029Z,28.88
2022-10-06T12:40:46.876Z,29.19
2022-10-06T12:43:30.110Z,28.77
2022-10-06T12:46:01.691Z,28.54
2022-10-06T12:48:37.763Z,28.53
2022-10-06T12:51:13.853Z,28.35
2022-10-06T12:53:49.666Z,28.26
2022-10-06T12:56:28.688Z,28.02
2022-10-06T12:58:57.306Z,27.61
2022-10-06T13:01:27.470Z,27.63
2022-10-06T13:03:56.358Z,27.19
2022-10-06T13:06:25.847Z,27.08
2022-10-06T13:09:13.219Z,27.38
2022-10-06T13:11:41.553Z,26.71
2022-10-06T13:14:11.214Z,26.85
2022-10-06T13:16:42.369Z,26.99
2022-10-06T13:19:18.230Z,27.15
2022-10-06T13:21:47.034Z,26.85
2022-10-06T13:24:19.508Z,26.95
2022-10-06T13:26:48.009Z,26.68
2022-10-06T13:29:20.771Z,26.89
2022-10-06T13:31:53.133Z,26.85
2022-10-06T13:34:25.377Z,26.85
2022-10-06T13:36:53.885Z,26.54
2022-10-06T13:39:23.482Z,26.70
2022-10-06T13:41:53.897Z,26.81
2022-10-06T13:44:32.435Z,26.87
2022-10-06T13:47:04.382Z,26.69
2022-10-06T13:49:34.750Z,26.66
2022-10-06T13:52:10.012Z,26.70
2022-10-06T13:54:42.670Z,26.64
2022-10-06T13:57:36.753Z,27.02
2022-10-06T14:00:13.350Z,26.59
2022-10-06T14:02:43.672Z,26.58
2022-10-06T14:05:31.100Z,26.78
2022-10-06T14:08:01.427Z,26.37
2022-10-06T14:10:32.745Z,26.40
2022-10-06T14:13:02.432Z,26.19
2022-10-06T14:15:33.639Z,26.29
2022-10-06T14:18:06.246Z,26.32
2022-10-06T14:20:38.004Z,26.24
2022-10-06T14:23:41.023Z,26.26
2022-10-06T14:26:10.271Z,25.45
2022-10-06T14:28:39.286Z,25.34
2022-10-06T14:31:13.461Z,25.13
2022-10-06T14:33:44.347Z,25.16
2022-10-06T14:36:17.210Z,25.23
2022-10-06T14:38:48.343Z,24.87
2022-10-06T14:41:19.339Z,24.28
2022-10-06T14:43:48.774Z,24.21
2022-10-06T14:46:17.232Z,23.94
2022-10-06T14:48:47.654Z,24.05
2022-10-06T14:51:16.900Z,23.65
2022-10-06T14:53:45.159Z,23.51
2022-10-06T14:56:15.989Z,23.51
2022-10-06T14:58:46.042Z,23.41
2022-10-06T15:01:17.226Z,23.59
2022-10-06T15:03:53.415Z,23.84
2022-10-06T15:06:39.511Z,23.22
2022-10-06T15:09:08.345Z,23.14
2022-10-06T15:11:37.156Z,22.91
2022-10-06T15:14:06.179Z,23.03
2022-10-06T15:16:37.050Z,23.00
2022-10-06T15:19:07.010Z,23.05
2022-10-06T15:21:35.190Z,22.59
2022-10-06T15:24:05.453Z,22.82
2022-10-06T15:26:51.788Z,22.58
2022-10-06T15:29:20.007Z,22.46
2022-10-06T15:31:52.957Z,22.43
2022-10-06T15:34:25.390Z,22.41
2022-10-06T15:36:55.462Z,22.12
2022-10-06T15:39:25.989Z,21.89
2022-10-06T15:41:54.787Z,21.63
2022-10-06T15:44:23.403Z,21.55
2022-10-06T15:46:53.078Z,21.62
2022-10-06T15:49:24.469Z,21.75
2022-10-06T15:51:54.157Z,21.63
2022-10-06T15:54:24.183Z,21.53
2022-10-06T15:56:53.680Z,21.26
2022-10-06T15:59:24.147Z,21.14
2022-10-06T16:01:56.239Z,20.93
2022-10-06T16:04:33.887Z,21.22
2022-10-06T16:07:02.449Z,20.94
2022-10-06T16:09:32.855Z,21.09
2022-10-06T16:12:02.888Z,21.01
2022-10-06T16:14:31.664Z,20.77
2022-10-06T16:17:00.365Z,20.79
2022-10-06T16:19:31.602Z,20.98
2022-10-06T16:22:00.714Z,20.69
2022-10-06T16:24:28.882Z,20.44
2022-10-06T16:26:58.113Z,20.42
2022-10-06T16:29:26.545Z,20.39
2022-10-06T16:31:54.905Z,20.37
2022-10-06T16:34:23.786Z,20.36
2022-10-06T16:36:53.637Z,20.53
2022-10-06T16:39:23.141Z,20.44
2022-10-06T16:41:52.191Z,20.29
2022-10-06T16:44:20.568Z,20.19
2022-10-06T16:46:49.035Z,20.20
2022-10-06T16:49:17.242Z,20.05
2022-10-06T16:51:46.990Z,20.15
2022-10-06T16:54:18.319Z,20.26
2022-10-06T16:56:48.043Z,19.97
2022-10-06T16:59:17.869Z,19.90
2022-10-06T17:01:48.334Z,19.78
2022-10-06T17:04:18.544Z,19.71
2022-10-06T17:06:48.704Z,19.69
2022-10-06T17:09:19.191Z,19.71
2022-10-06T17:11:49.488Z,19.59
2022-10-06T17:14:18.037Z,19.29
2022-10-06T17:16:48.606Z,19.40
2022-10-06T17:19:17.921Z,19.32
2022-10-06T17:21:48.705Z,19.02
2022-10-06T17:24:20.519Z,19.26
2022-10-06T17:26:50.289Z,19.15
2022-10-06T17:29:21.352Z,19.01
2022-10-06T17:31:51.786Z,18.89
2022-10-06T17:34:22.911Z,18.84
2022-10-06T17:36:53.524Z,18.69
2022-10-06T17:39:24.726Z,18.87
2022-10-06T17:41:53.657Z,19.22
2022-10-06T17:44:24.212Z,18.66
2022-10-06T17:46:55.378Z,18.57
2022-10-06T17:49:24.956Z,18.44
2022-10-06T17:51:55.870Z,18.25
2022-10-06T17:54:27.241Z,18.50
2022-10-06T17:56:57.749Z,18.30
2022-10-06T17:59:28.613Z,18.20
2022-10-06T18:01:58.496Z,18.03
2022-10-06T18:04:27.258Z,17.85
2022-10-06T18:06:56.321Z,17.89
2022-10-06T18:09:26.925Z,18.06
2022-10-06T18:11:58.573Z,17.69
2022-10-06T18:14:28.276Z,17.81
2022-10-06T18:16:58.536Z,17.80
2022-10-06T18:19:30.264Z,17.75
2022-10-06T18:22:00.799Z,17.76
2022-10-06T18:24:31.761Z,17.79
2022-10-06T18:27:01.312Z,17.70
2022-10-06T18:29:31.438Z,17.63
2022-10-06T18:33:28.638Z,17.44
2022-10-06T18:37:36.966Z,17.13
2022-10-06T18:40:10.141Z,17.38
2022-10-06T18:42:39.073Z,17.05
2022-10-06T18:45:26.688Z,17.19
2022-10-06T18:48:12.251Z,16.92
2022-10-06T18:50:40.735Z,16.88
2022-10-06T18:53:09.289Z,16.83
2022-10-06T18:55:38.882Z,17.16
2022-10-06T18:58:07.220Z,16.78
2022-10-06T19:00:35.375Z,16.77
2022-10-06T19:03:03.839Z,16.74
2022-10-06T19:05:32.657Z,16.72
2022-10-06T19:08:01.760Z,16.75
2022-10-06T19:10:31.060Z,16.69
2022-10-06T19:13:01.180Z,16.95
2022-10-06T19:15:29.315Z,16.57
2022-10-06T19:17:57.771Z,16.57
2022-10-06T19:20:25.979Z,16.45
2022-10-06T19:22:54.302Z,16.41
2022-10-06T19:25:23.996Z,16.36
2022-10-06T19:27:52.188Z,16.41
2022-10-06T19:30:23.127Z,16.61
2022-10-06T19:32:52.601Z,16.21
2022-10-06T19:35:21.080Z,16.23
2022-10-06T19:37:51.168Z,16.15
2022-10-06T19:40:19.829Z,16.08
2022-10-06T19:42:51.133Z,16.04
2022-10-06T19:45:21.177Z,15.97
2022-10-06T19:47:49.353Z,15.91
2022-10-06T19:50:18.109Z,15.83
2022-10-06T19:52:46.775Z,15.82
2022-10-06T19:55:15.104Z,15.78
2022-10-06T19:57:43.727Z,15.76
2022-10-06T20:00:13.708Z,15.96
2022-10-06T20:02:44.389Z,15.96
2022-10-06T20:05:13.663Z,15.77
2022-10-06T20:07:43.871Z,15.61
2022-10-06T20:10:12.408Z,15.48
2022-10-06T20:12:41.566Z,15.44
2022-10-06T20:15:11.115Z,15.51
2022-10-06T20:17:42.311Z,15.35
2022-10-06T20:20:13.790Z,15.68
2022-10-06T20:22:41.985Z,15.32
2022-10-06T20:25:11.099Z,15.47
2022-10-06T20:27:39.402Z,15.31
2022-10-06T20:30:08.758Z,15.46
2022-10-06T20:32:36.945Z,15.29
2022-10-06T20:35:05.792Z,15.27
2022-10-06T20:37:38.416Z,15.39
2022-10-06T20:40:25.178Z,15.24
2022-10-06T20:42:54.921Z,15.09
2022-10-06T20:45:23.518Z,15.00
2022-10-06T20:47:51.793Z,14.95
2022-10-06T20:50:20.193Z,14.86
2022-10-06T20:52:50.152Z,15.14
2022-10-06T20:55:18.317Z,14.71
2022-10-06T20:57:47.328Z,14.73
2022-10-06T21:00:17.817Z,14.87
2022-10-06T21:02:46.398Z,14.62
2022-10-06T21:05:14.951Z,14.56
2022-10-06T21:07:43.383Z,14.57
2022-10-06T21:10:13.243Z,14.81
2022-10-06T21:12:42.451Z,14.53
2022-10-06T21:15:11.438Z,14.48
2022-10-06T21:17:39.653Z,14.36
2022-10-06T21:20:08.757Z,14.46
2022-10-06T21:22:37.407Z,14.42
2022-10-06T21:25:06.373Z,14.40
2022-10-06T21:27:36.097Z,14.62
2022-10-06T21:30:04.925Z,14.34
2022-10-06T21:32:33.368Z,14.15
2022-10-06T21:35:02.019Z,14.09
2022-10-06T21:37:30.639Z,14.06
2022-10-06T21:40:02.310Z,13.99
2022-10-06T21:42:31.425Z,13.92
2022-10-06T21:45:01.416Z,14.18
2022-10-06T21:47:29.793Z,13.84
2022-10-06T21:49:58.307Z,13.87
2022-10-06T21:52:26.590Z,13.77
2022-10-06T21:54:55.064Z,13.85
2022-10-06T21:57:25.424Z,13.73
2022-10-06T21:59:53.842Z,13.71
2022-10-06T22:02:23.740Z,14.01
2022-10-06T22:04:52.249Z,13.73
2022-10-06T22:07:20.519Z,13.67
2022-10-06T22:09:49.042Z,13.65
2022-10-06T22:12:17.360Z,13.55
2022-10-06T22:14:45.585Z,13.54
2022-10-06T22:17:14.065Z,13.47
2022-10-06T22:19:43.896Z,13.83
2022-10-06T22:22:12.412Z,13.40
2022-10-06T22:24:40.707Z,13.40
2022-10-06T22:27:09.009Z,13.39
2022-10-06T22:29:37.191Z,13.41
2022-10-06T22:32:05.577Z,13.36
2022-10-06T22:34:33.898Z,13.40
2022-10-06T22:37:03.553Z,13.72
2022-10-06T22:39:32.040Z,13.36
2022-10-06T22:42:00.240Z,13.28
2022-10-06T22:44:28.501Z,13.26
2022-10-06T22:46:57.038Z,13.24
2022-10-06T22:49:25.348Z,13.26
2022-10-06T22:51:53.611Z,13.26
2022-10-06T22:54:26.019Z,13.57
2022-10-06T22:56:54.248Z,13.18
2022-10-06T22:59:22.650Z,13.14
2022-10-06T23:01:51.133Z,13.08
2022-10-06T23:04:19.319Z,13.08
2022-10-06T23:06:47.876Z,13.13
2022-10-06T23:09:16.074Z,13.11
2022-10-06T23:11:45.660Z,13.26
2022-10-06T23:14:14.047Z,12.96
2022-10-06T23:16:42.269Z,12.96
2022-10-06T23:19:11.881Z,13.23
2022-10-06T23:21:40.487Z,12.93
2022-10-06T23:24:08.828Z,12.85
2022-10-06T23:26:36.963Z,12.84
2022-10-06T23:29:07.550Z,13.15
2022-10-06T23:31:35.755Z,12.89
2022-10-06T23:34:04.048Z,12.79
2022-10-06T23:36:32.631Z,12.71
2022-10-06T23:39:01.187Z,12.82
2022-10-06T23:41:29.463Z,12.62
2022-10-06T23:43:57.846Z,12.59
2022-10-06T23:46:27.322Z,12.87
2022-10-06T23:48:55.402Z,12.50
2022-10-06T23:51:23.729Z,12.58
2022-10-06T23:53:51.819Z,12.54
2022-10-06T23:56:20.870Z,12.48
2022-10-06T23:58:49.187Z,12.40
